Time;durP1;ratioP1;P1;durP2;ratioP2;P2;SDS_P1;SDS_P2;PMS_P1;PMS_P2;Temp;Humidity;BMP_temperature;BMP_pressure;BME280_temperature;BME280_humidity;BME280_pressure;Samples;Min_cycle;Max_cycle;Signal;HPM_P1;HPM_P2
2023/09/11 00:00:15;;;;;;;38.50;36.40;;;26.60;99.90;;;;;;5050914;28;20507;-57
2023/09/11 00:02:41;;;;;;;39.23;37.03;;;26.60;99.90;;;;;;5051076;28;20498;-56
2023/09/11 00:05:10;;;;;;;39.50;37.50;;;26.60;99.90;;;;;;5051287;28;20468;-55
2023/09/11 00:07:37;;;;;;;39.40;37.30;;;26.60;99.90;;;;;;5050520;28;20437;-54
2023/09/11 00:10:05;;;;;;;38.10;36.10;;;26.60;99.90;;;;;;5050728;28;20507;-57
2023/09/11 00:12:32;;;;;;;38.87;36.87;;;26.60;99.90;;;;;;5050827;28;20475;-59
2023/09/11 00:14:59;;;;;;;38.70;36.53;;;26.50;99.90;;;;;;5051092;28;20969;-50
2023/09/11 00:17:26;;;;;;;38.63;36.53;;;26.50;99.90;;;;;;5051096;28;20476;-55
2023/09/11 00:19:53;;;;;;;39.70;37.47;;;26.50;99.90;;;;;;5050380;28;20822;-57
2023/09/11 00:22:22;;;;;;;37.70;35.80;;;26.50;99.90;;;;;;5050800;28;20472;-56
2023/09/11 00:24:48;;;;;;;37.97;35.87;;;26.50;99.90;;;;;;5051030;28;20445;-56
2023/09/11 00:27:15;;;;;;;37.23;35.20;;;26.50;99.90;;;;;;5051050;28;20479;-55
2023/09/11 00:29:42;;;;;;;38.40;36.50;;;26.40;99.90;;;;;;5050514;28;20490;-56
2023/09/11 00:32:09;;;;;;;37.97;35.87;;;26.40;99.90;;;;;;5050523;28;20479;-57
2023/09/11 00:34:36;;;;;;;36.73;34.83;;;26.40;99.90;;;;;;5050396;28;20490;-51
2023/09/11 00:37:03;;;;;;;39.23;37.23;;;26.40;99.90;;;;;;5050773;28;20559;-57
2023/09/11 00:39:31;;;;;;;38.87;36.83;;;26.40;99.90;;;;;;5050765;28;20547;-54
2023/09/11 00:41:58;;;;;;;39.43;37.03;;;26.30;99.90;;;;;;5050219;28;20495;-53
2023/09/11 00:44:25;;;;;;;39.57;37.00;;;26.30;99.90;;;;;;5050538;28;20480;-56
2023/09/11 00:46:52;;;;;;;40.30;38.00;;;26.30;99.90;;;;;;5042666;28;20437;-56
2023/09/11 00:49:20;;;;;;;40.17;37.83;;;26.30;99.90;;;;;;5050860;28;20472;-54
2023/09/11 00:51:50;;;;;;;39.33;37.00;;;26.30;99.90;;;;;;5050392;28;20495;-54
2023/09/11 00:54:18;;;;;;;37.90;35.80;;;26.20;99.90;;;;;;5050337;28;20452;-53
2023/09/11 00:56:47;;;;;;;37.47;35.57;;;26.20;99.90;;;;;;5050314;28;20479;-55
2023/09/11 00:59:15;;;;;;;38.97;36.73;;;26.20;99.90;;;;;;5052604;28;20487;-54
2023/09/11 01:01:43;;;;;;;38.67;36.47;;;26.20;99.90;;;;;;5054172;28;20480;-56
2023/09/11 01:04:10;;;;;;;36.93;35.10;;;26.20;99.90;;;;;;5054297;28;20987;-54
2023/09/11 01:06:37;;;;;;;37.90;35.80;;;26.20;99.90;;;;;;5053979;28;20476;-57
2023/09/11 01:09:04;;;;;;;36.40;34.50;;;26.20;99.90;;;;;;5054015;28;20472;-58
2023/09/11 01:11:31;;;;;;;38.77;36.80;;;26.20;99.90;;;;;;5053590;28;20499;-53
2023/09/11 01:14:00;;;;;;;37.77;35.67;;;26.20;99.90;;;;;;5054133;28;20472;-57
2023/09/11 01:16:34;;;;;;;37.87;35.57;;;26.10;99.90;;;;;;5053905;28;20500;-59
2023/09/11 01:19:13;;;;;;;36.27;34.27;;;26.20;99.90;;;;;;5053729;28;20491;-53
2023/09/11 01:22:04;;;;;;;37.27;35.27;;;26.10;99.90;;;;;;5053414;28;20914;-50
2023/09/11 01:25:01;;;;;;;38.30;35.80;;;26.10;99.90;;;;;;5046439;28;20950;-58
2023/09/11 01:27:49;;;;;;;37.27;35.00;;;26.10;99.90;;;;;;5053877;28;20861;-55
2023/09/11 01:30:20;;;;;;;36.43;34.47;;;26.10;99.90;;;;;;5043438;28;20933;-57
2023/09/11 01:32:48;;;;;;;41.20;38.50;;;26.00;99.90;;;;;;5053691;28;20473;-59
2023/09/11 01:35:15;;;;;;;38.30;35.63;;;26.00;99.90;;;;;;5053583;28;20460;-53
2023/09/11 01:37:42;;;;;;;37.33;35.33;;;26.00;99.90;;;;;;5053055;28;20472;-56
2023/09/11 01:40:09;;;;;;;40.23;37.50;;;26.00;99.90;;;;;;5053844;28;20460;-50
2023/09/11 01:42:42;;;;;;;38.83;36.93;;;26.00;99.90;;;;;;5053431;28;20468;-56
2023/09/11 01:45:10;;;;;;;38.30;36.30;;;26.00;99.90;;;;;;5053889;28;20471;-51
2023/09/11 01:47:38;;;;;;;38.53;36.57;;;25.90;99.90;;;;;;5053349;28;20515;-52
2023/09/11 01:50:07;;;;;;;38.67;36.57;;;25.90;99.90;;;;;;5053521;28;20492;-55
2023/09/11 01:52:36;;;;;;;38.23;35.93;;;25.90;99.90;;;;;;5053086;28;20463;-55
2023/09/11 01:55:04;;;;;;;39.07;36.77;;;25.90;99.90;;;;;;5053374;28;20566;-52
2023/09/11 01:57:31;;;;;;;37.27;35.17;;;25.90;99.90;;;;;;5053000;28;20512;-52
2023/09/11 01:59:58;;;;;;;39.03;36.53;;;25.90;99.90;;;;;;5053399;28;20468;-58
2023/09/11 02:02:24;;;;;;;41.50;39.30;;;25.90;99.90;;;;;;5053154;28;20479;-50
2023/09/11 02:04:53;;;;;;;37.43;35.53;;;25.90;99.90;;;;;;5053224;28;20959;-53
2023/09/11 02:07:20;;;;;;;38.10;35.90;;;25.90;99.90;;;;;;5052891;28;20479;-50
2023/09/11 02:09:47;;;;;;;39.53;36.90;;;25.80;99.90;;;;;;5052787;28;20479;-50
2023/09/11 02:12:14;;;;;;;36.77;34.87;;;25.80;99.90;;;;;;5052874;28;20943;-55
2023/09/11 02:14:41;;;;;;;39.50;37.50;;;25.80;99.90;;;;;;5053249;28;20849;-51
2023/09/11 02:17:08;;;;;;;39.40;37.20;;;25.80;99.90;;;;;;5052954;28;20503;-55
2023/09/11 02:19:35;;;;;;;38.73;36.63;;;25.80;99.90;;;;;;5052556;28;20484;-50
2023/09/11 02:22:03;;;;;;;39.53;37.60;;;25.80;99.90;;;;;;5052895;28;20910;-52
2023/09/11 02:24:31;;;;;;;38.50;36.33;;;25.80;99.90;;;;;;5052882;28;20444;-52
2023/09/11 02:26:59;;;;;;;39.90;37.70;;;25.80;99.90;;;;;;5052946;28;20465;-56
2023/09/11 02:29:26;;;;;;;38.87;36.77;;;25.80;99.90;;;;;;5052857;28;20943;-53
2023/09/11 02:31:53;;;;;;;38.17;35.93;;;25.80;99.90;;;;;;5051987;28;20503;-55
2023/09/11 02:34:19;;;;;;;38.13;35.90;;;25.80;99.90;;;;;;5052959;28;20475;-55
2023/09/11 02:36:46;;;;;;;38.37;36.30;;;25.80;99.90;;;;;;5052592;28;20500;-56
2023/09/11 02:39:14;;;;;;;39.17;37.07;;;25.80;99.90;;;;;;5052706;28;20549;-53
2023/09/11 02:41:41;;;;;;;39.23;37.33;;;25.70;99.90;;;;;;5052538;28;20503;-52
2023/09/11 02:44:08;;;;;;;39.83;37.60;;;25.70;99.90;;;;;;5051776;28;20476;-53
2023/09/11 02:46:35;;;;;;;37.93;35.87;;;25.70;99.90;;;;;;5052368;28;20460;-51
2023/09/11 02:49:02;;;;;;;37.97;36.13;;;25.60;99.90;;;;;;5052445;28;20440;-50
2023/09/11 02:51:30;;;;;;;39.23;37.27;;;25.60;99.90;;;;;;5052276;28;20499;-53
2023/09/11 02:53:57;;;;;;;40.07;37.63;;;25.60;99.90;;;;;;5044469;28;20444;-51
2023/09/11 02:56:26;;;;;;;37.17;34.93;;;25.60;99.90;;;;;;5051350;28;20508;-52
2023/09/11 02:58:52;;;;;;;40.57;38.57;;;25.60;99.90;;;;;;5052190;28;20468;-50
2023/09/11 03:01:19;;;;;;;39.17;37.00;;;25.60;99.90;;;;;;5051784;28;20500;-53
2023/09/11 03:03:46;;;;;;;40.93;38.80;;;25.60;99.90;;;;;;5051925;28;20522;-51
2023/09/11 03:06:13;;;;;;;38.47;36.37;;;25.60;99.90;;;;;;5052186;28;20437;-56
2023/09/11 03:08:40;;;;;;;38.17;36.07;;;25.60;99.90;;;;;;5051413;28;20480;-52
2023/09/11 03:11:09;;;;;;;38.03;35.83;;;25.60;99.90;;;;;;5051989;28;20914;-55
2023/09/11 03:13:38;;;;;;;36.63;34.63;;;25.60;99.90;;;;;;5051932;28;20440;-55
2023/09/11 03:16:09;;;;;;;38.73;36.60;;;25.60;99.90;;;;;;5051939;28;20508;-51
2023/09/11 03:18:36;;;;;;;38.17;35.83;;;25.60;99.90;;;;;;5051463;28;20468;-55
2023/09/11 03:21:03;;;;;;;39.43;36.17;;;25.60;99.90;;;;;;5051106;28;20496;-53
2023/09/11 03:23:30;;;;;;;37.00;35.00;;;25.60;99.90;;;;;;5051692;28;20441;-56
2023/09/11 03:25:57;;;;;;;37.60;35.80;;;25.60;99.90;;;;;;5043676;28;20935;-53
2023/09/11 03:28:27;;;;;;;37.33;35.33;;;25.60;99.90;;;;;;5051928;28;20498;-55
2023/09/11 03:30:56;;;;;;;39.60;37.47;;;25.60;99.90;;;;;;5050919;28;20495;-52
2023/09/11 03:33:23;;;;;;;38.30;36.40;;;25.50;99.90;;;;;;5051904;28;20859;-53
2023/09/11 03:35:50;;;;;;;39.67;37.63;;;25.50;99.90;;;;;;5051465;28;20479;-55
2023/09/11 03:38:17;;;;;;;39.63;37.50;;;25.50;99.90;;;;;;5051661;28;20479;-57
2023/09/11 03:40:46;;;;;;;38.43;36.57;;;25.50;99.90;;;;;;5051477;28;20504;-58
2023/09/11 03:43:13;;;;;;;37.80;35.80;;;25.50;99.90;;;;;;5051511;28;20932;-57
2023/09/11 03:45:40;;;;;;;36.97;34.73;;;25.50;99.90;;;;;;5051251;28;20471;-57
2023/09/11 03:48:09;;;;;;;36.80;34.93;;;25.50;99.90;;;;;;5051567;28;20963;-58
2023/09/11 03:50:36;;;;;;;38.67;35.70;;;25.50;99.90;;;;;;5050816;28;20499;-56
2023/09/11 03:53:03;;;;;;;38.70;36.50;;;25.50;99.90;;;;;;5051341;28;20464;-54
2023/09/11 03:55:30;;;;;;;38.40;36.30;;;25.40;99.90;;;;;;5051515;28;20472;-56
2023/09/11 03:57:57;;;;;;;39.20;36.57;;;25.40;99.90;;;;;;5042983;28;20515;-52
2023/09/11 04:00:24;;;;;;;41.80;39.60;;;25.40;99.90;;;;;;5051136;28;20982;-55
2023/09/11 04:02:51;;;;;;;45.47;43.37;;;25.40;99.90;;;;;;5050646;28;20480;-53
2023/09/11 04:05:19;;;;;;;40.30;38.20;;;25.40;99.90;;;;;;5051285;28;20468;-50
2023/09/11 04:07:46;;;;;;;44.17;41.87;;;25.40;99.90;;;;;;5051082;28;20471;-59
2023/09/11 04:10:13;;;;;;;42.77;40.13;;;25.40;99.90;;;;;;5051327;28;20518;-55
2023/09/11 04:12:40;;;;;;;41.60;39.50;;;25.30;99.90;;;;;;5050510;28;20448;-59
2023/09/11 04:15:08;;;;;;;43.50;41.10;;;25.30;99.90;;;;;;5051124;28;20483;-52
2023/09/11 04:17:35;;;;;;;41.13;38.83;;;25.30;99.90;;;;;;5051056;28;20563;-51
2023/09/11 04:20:03;;;;;;;44.87;42.07;;;25.30;99.90;;;;;;5051159;28;20874;-52
2023/09/11 04:22:31;;;;;;;43.73;41.53;;;25.30;99.90;;;;;;5050930;28;20444;-51
2023/09/11 04:24:58;;;;;;;42.80;40.10;;;25.30;99.90;;;;;;5051059;28;20436;-51
2023/09/11 04:27:25;;;;;;;40.73;38.47;;;25.30;99.90;;;;;;5046368;28;20472;-54
2023/09/11 04:29:51;;;;;;;43.70;40.70;;;25.30;99.90;;;;;;5050939;28;20472;-50
2023/09/11 04:32:20;;;;;;;44.27;41.30;;;25.30;99.90;;;;;;5050840;28;20468;-54
2023/09/11 04:34:47;;;;;;;41.73;39.10;;;25.20;99.90;;;;;;5054914;28;20447;-52
2023/09/11 04:37:16;;;;;;;43.27;40.33;;;25.20;99.90;;;;;;5054281;28;20507;-50
2023/09/11 04:39:45;;;;;;;43.30;40.43;;;25.30;99.90;;;;;;5054263;28;20480;-52
2023/09/11 04:42:12;;;;;;;50.67;47.67;;;25.30;99.90;;;;;;5053784;28;20495;-55
2023/09/11 04:44:39;;;;;;;47.57;44.87;;;25.30;99.90;;;;;;5054478;28;20486;-58
2023/09/11 04:47:09;;;;;;;48.20;45.70;;;25.30;99.90;;;;;;5054766;28;20436;-50
2023/09/11 04:49:36;;;;;;;49.90;47.53;;;25.40;99.90;;;;;;5054583;28;20519;-56
2023/09/11 04:52:05;;;;;;;51.03;48.20;;;25.40;99.90;;;;;;5053850;28;20498;-54
2023/09/11 04:54:32;;;;;;;48.87;46.50;;;25.50;99.90;;;;;;5054629;28;20440;-54
2023/09/11 04:57:00;;;;;;;50.70;48.30;;;25.60;99.90;;;;;;5054521;28;20484;-56
2023/09/11 04:59:28;;;;;;;47.80;45.60;;;25.70;99.90;;;;;;5054466;28;20440;-55
2023/09/11 05:01:56;;;;;;;50.33;47.80;;;25.80;99.90;;;;;;5054017;28;20531;-56
2023/09/11 05:04:23;;;;;;;50.23;47.63;;;26.00;99.90;;;;;;5053271;28;20614;-49
2023/09/11 05:06:50;;;;;;;51.33;48.63;;;26.10;99.90;;;;;;5054537;28;21005;-53
2023/09/11 05:09:17;;;;;;;51.03;48.30;;;26.20;99.90;;;;;;5054402;28;20446;-53
2023/09/11 05:11:44;;;;;;;50.83;48.33;;;26.30;99.90;;;;;;5053906;28;20467;-55
2023/09/11 05:14:12;;;;;;;49.20;46.80;;;26.40;99.90;;;;;;5054273;28;20444;-52
2023/09/11 05:16:39;;;;;;;51.60;48.53;;;26.50;99.90;;;;;;5053942;28;21008;-52
2023/09/11 05:19:06;;;;;;;51.07;48.37;;;26.50;99.90;;;;;;5054302;28;20475;-50
2023/09/11 05:21:33;;;;;;;44.37;41.73;;;26.60;99.90;;;;;;5053811;28;20491;-55
2023/09/11 05:24:00;;;;;;;43.90;41.17;;;26.70;99.90;;;;;;5053988;28;20494;-54
2023/09/11 05:26:27;;;;;;;46.13;43.07;;;26.80;99.90;;;;;;5054164;28;20467;-53
2023/09/11 05:28:54;;;;;;;44.20;42.00;;;26.90;99.90;;;;;;5053813;28;20583;-57
2023/09/11 05:31:22;;;;;;;44.67;42.10;;;27.00;99.90;;;;;;5053679;28;20491;-51
2023/09/11 05:33:49;;;;;;;43.17;40.40;;;27.00;99.90;;;;;;5053508;28;20441;-59
2023/09/11 05:36:16;;;;;;;42.80;40.60;;;27.00;99.90;;;;;;5053859;28;20479;-59
2023/09/11 05:38:43;;;;;;;42.27;39.87;;;27.00;99.90;;;;;;5053584;28;20562;-56
2023/09/11 05:41:10;;;;;;;45.57;42.60;;;27.00;99.90;;;;;;5053694;28;20460;-59
2023/09/11 05:43:37;;;;;;;46.77;44.27;;;26.90;99.90;;;;;;5052820;28;20490;-57
2023/09/11 05:46:04;;;;;;;45.40;43.00;;;26.80;99.90;;;;;;5053765;28;20472;-56
2023/09/11 05:48:32;;;;;;;48.33;45.73;;;26.80;99.90;;;;;;5053586;28;20468;-56
2023/09/11 05:50:59;;;;;;;43.83;41.37;;;26.80;99.90;;;;;;5053281;28;20500;-57
2023/09/11 05:53:26;;;;;;;46.70;44.30;;;26.70;99.90;;;;;;5053332;28;20476;-58
2023/09/11 05:55:53;;;;;;;43.53;41.17;;;26.60;99.90;;;;;;5053345;28;20948;-56
2023/09/11 05:58:20;;;;;;;43.40;40.90;;;26.60;99.90;;;;;;5053237;28;20926;-54
2023/09/11 06:00:48;;;;;;;44.13;41.67;;;26.60;99.90;;;;;;5053030;28;20487;-58
2023/09/11 06:03:14;;;;;;;43.00;40.67;;;26.50;99.90;;;;;;5053051;28;20441;-56
2023/09/11 06:05:43;;;;;;;44.57;42.17;;;26.50;99.90;;;;;;5053051;28;20476;-55
2023/09/11 06:08:10;;;;;;;41.40;39.40;;;26.40;99.90;;;;;;5053283;28;20873;-57
2023/09/11 06:10:37;;;;;;;42.93;40.63;;;26.40;99.90;;;;;;5053069;28;20468;-62
2023/09/11 06:13:04;;;;;;;43.10;40.73;;;26.40;99.90;;;;;;5044919;28;20445;-55
2023/09/11 06:15:31;;;;;;;45.20;42.80;;;26.30;99.90;;;;;;5053065;28;20482;-56
2023/09/11 06:17:58;;;;;;;44.53;42.20;;;26.30;99.90;;;;;;5052836;28;20500;-55
2023/09/11 06:20:25;;;;;;;44.50;42.30;;;26.30;99.90;;;;;;5052782;28;20467;-56
2023/09/11 06:22:54;;;;;;;45.33;43.00;;;26.30;99.90;;;;;;5052639;28;20444;-56
2023/09/11 06:25:21;;;;;;;46.93;44.30;;;26.20;99.90;;;;;;5052806;28;20447;-56
2023/09/11 06:27:49;;;;;;;48.70;46.27;;;26.20;99.90;;;;;;5052684;28;20464;-52
2023/09/11 06:30:16;;;;;;;46.00;43.60;;;26.20;99.90;;;;;;5052673;28;20465;-56
2023/09/11 06:32:42;;;;;;;49.27;46.50;;;26.20;99.90;;;;;;5052611;28;21118;-54
2023/09/11 06:35:10;;;;;;;47.37;45.00;;;26.20;99.90;;;;;;5052707;28;20856;-53
2023/09/11 06:37:37;;;;;;;45.03;42.80;;;26.20;99.90;;;;;;5052514;28;20863;-56
2023/09/11 06:40:09;;;;;;;46.93;44.20;;;26.10;99.90;;;;;;5044514;28;20499;-58
2023/09/11 06:42:36;;;;;;;45.80;43.40;;;26.10;99.90;;;;;;5052338;28;20448;-55
2023/09/11 06:45:04;;;;;;;44.00;41.90;;;26.10;99.90;;;;;;5052372;28;20932;-52
2023/09/11 06:47:31;;;;;;;48.00;45.37;;;26.10;99.90;;;;;;5052558;28;20582;-53
2023/09/11 06:49:57;;;;;;;45.57;43.37;;;26.10;99.90;;;;;;5052186;28;20480;-58
2023/09/11 06:52:24;;;;;;;44.73;42.43;;;26.10;99.90;;;;;;5052155;28;20476;-55
2023/09/11 06:54:51;;;;;;;47.73;45.53;;;26.10;99.90;;;;;;5051858;28;20448;-58
2023/09/11 06:57:19;;;;;;;48.27;45.97;;;26.10;99.90;;;;;;5051610;28;20518;-56
2023/09/11 06:59:46;;;;;;;44.60;42.37;;;26.10;99.90;;;;;;5052032;28;20935;-51
2023/09/11 07:02:13;;;;;;;44.50;42.20;;;26.10;99.90;;;;;;5052050;28;20891;-58
2023/09/11 07:04:40;;;;;;;46.30;44.20;;;26.10;99.90;;;;;;5052040;28;20468;-58
2023/09/11 07:07:07;;;;;;;44.20;42.10;;;26.10;99.90;;;;;;5052070;28;20480;-57
2023/09/11 07:09:34;;;;;;;45.37;43.00;;;26.10;99.90;;;;;;5051976;28;20479;-58
2023/09/11 07:12:00;;;;;;;47.63;45.17;;;26.10;99.90;;;;;;5051547;28;20488;-53
2023/09/11 07:14:29;;;;;;;43.77;41.50;;;26.00;99.90;;;;;;5051966;28;20472;-56
2023/09/11 07:17:00;;;;;;;45.60;43.10;;;26.10;99.90;;;;;;5051784;28;20510;-55
2023/09/11 07:19:27;;;;;;;44.27;42.17;;;26.00;99.90;;;;;;5051668;28;20447;-53
2023/09/11 07:21:53;;;;;;;43.97;41.57;;;26.00;99.90;;;;;;5051317;28;20517;-58
2023/09/11 07:24:20;;;;;;;42.83;40.53;;;26.00;99.90;;;;;;5051699;28;20467;-56
2023/09/11 07:26:47;;;;;;;45.60;43.20;;;26.00;99.90;;;;;;5051614;28;20467;-58
2023/09/11 07:29:14;;;;;;;46.90;44.60;;;26.00;99.90;;;;;;5051833;28;20460;-57
2023/09/11 07:31:43;;;;;;;50.10;47.43;;;26.00;99.90;;;;;;5051158;28;20494;-53
2023/09/11 07:34:10;;;;;;;47.47;45.37;;;26.00;99.90;;;;;;5051550;28;20443;-59
2023/09/11 07:36:37;;;;;;;45.93;43.50;;;26.00;99.90;;;;;;5051642;28;20472;-54
2023/09/11 07:39:04;;;;;;;44.90;42.80;;;26.00;99.90;;;;;;5051289;28;20512;-56
2023/09/11 07:41:31;;;;;;;45.83;43.40;;;26.00;99.90;;;;;;5051244;28;20484;-56
2023/09/11 07:43:58;;;;;;;50.80;48.30;;;26.00;99.90;;;;;;5051252;28;20479;-57
2023/09/11 07:46:25;;;;;;;49.77;47.10;;;26.00;99.90;;;;;;5051342;28;20444;-51
2023/09/11 07:48:53;;;;;;;44.37;42.00;;;26.00;99.90;;;;;;5051376;28;20505;-56
2023/09/11 07:51:20;;;;;;;44.30;42.10;;;26.00;99.90;;;;;;5051352;28;20460;-58
2023/09/11 07:53:47;;;;;;;48.20;45.50;;;26.00;99.90;;;;;;5050938;28;20947;-56
2023/09/11 07:56:14;;;;;;;48.20;45.70;;;26.00;99.90;;;;;;5051350;28;20467;-57
2023/09/11 07:58:41;;;;;;;46.10;43.87;;;26.10;99.90;;;;;;5051138;28;20555;-58
2023/09/11 08:01:08;;;;;;;48.17;45.77;;;26.10;99.90;;;;;;5051105;28;20483;-56
2023/09/11 08:03:36;;;;;;;44.73;42.47;;;26.10;99.90;;;;;;5050982;28;20468;-57
2023/09/11 08:06:05;;;;;;;46.97;44.53;;;26.10;99.90;;;;;;5051047;28;20494;-55
2023/09/11 08:08:32;;;;;;;45.10;42.70;;;26.10;99.90;;;;;;5050734;28;20436;-50
2023/09/11 08:10:59;;;;;;;45.90;43.70;;;26.10;99.90;;;;;;5050867;28;20498;-57
2023/09/11 08:13:26;;;;;;;48.47;45.83;;;26.10;99.90;;;;;;5050715;28;20476;-53
2023/09/11 08:15:53;;;;;;;45.33;42.93;;;26.10;99.90;;;;;;5050945;28;20472;-57
2023/09/11 08:18:21;;;;;;;46.83;43.90;;;26.00;99.90;;;;;;5050920;28;20515;-52
2023/09/11 08:20:49;;;;;;;45.87;43.67;;;26.10;99.90;;;;;;5081955;22;20494;-58
2023/09/11 08:23:18;;;;;;;45.10;42.63;;;26.10;99.90;;;;;;5070919;28;20442;-60
2023/09/11 08:25:45;;;;;;;46.00;43.47;;;26.10;99.90;;;;;;5070898;28;20439;-59
2023/09/11 08:28:12;;;;;;;45.67;43.03;;;26.10;99.90;;;;;;5071031;28;20488;-58
2023/09/11 08:30:39;;;;;;;44.90;42.53;;;26.10;99.90;;;;;;5065651;28;20484;-59
2023/09/11 08:33:06;;;;;;;46.00;42.77;;;26.10;99.90;;;;;;5050742;28;20464;-58
2023/09/11 08:35:32;;;;;;;47.73;45.20;;;26.10;99.90;;;;;;5050929;28;20939;-61
2023/09/11 08:37:59;;;;;;;43.03;40.90;;;26.10;99.90;;;;;;5050774;28;20515;-59
2023/09/11 08:40:31;;;;;;;46.63;44.30;;;26.10;99.90;;;;;;5050821;28;20484;-59
2023/09/11 08:42:59;;;;;;;44.93;42.63;;;26.10;99.90;;;;;;5050607;28;20451;-59
2023/09/11 08:45:26;;;;;;;44.57;42.27;;;26.10;99.90;;;;;;5050948;28;20475;-57
2023/09/11 08:47:57;;;;;;;43.20;40.70;;;26.10;99.90;;;;;;5050779;28;20472;-61
2023/09/11 08:50:26;;;;;;;43.97;41.77;;;26.10;99.90;;;;;;5050764;28;21023;-57
2023/09/11 08:52:56;;;;;;;44.33;42.13;;;26.10;99.90;;;;;;5050418;28;20476;-61
2023/09/11 08:55:26;;;;;;;41.90;39.70;;;26.10;99.90;;;;;;5050806;28;20870;-60
2023/09/11 08:57:55;;;;;;;45.00;42.60;;;26.20;99.90;;;;;;5050626;28;20486;-58
2023/09/11 09:00:22;;;;;;;43.30;41.00;;;26.20;99.90;;;;;;5050487;28;20483;-59
2023/09/11 09:02:49;;;;;;;41.93;39.83;;;26.20;99.90;;;;;;5050358;28;20502;-59
2023/09/11 09:05:17;;;;;;;43.63;41.43;;;26.20;99.90;;;;;;5050783;28;20442;-58
2023/09/11 09:07:46;;;;;;;43.27;40.90;;;26.20;99.90;;;;;;5050456;28;20989;-59
2023/09/11 09:10:14;;;;;;;42.60;40.50;;;26.20;99.90;;;;;;5050475;28;20443;-56
2023/09/11 09:12:41;;;;;;;43.20;41.10;;;26.20;99.90;;;;;;5050342;28;20475;-59
2023/09/11 09:15:11;;;;;;;43.37;41.10;;;26.20;99.90;;;;;;5050480;28;20519;-59
2023/09/11 09:17:37;;;;;;;41.50;39.40;;;26.20;99.90;;;;;;5050516;28;20475;-59
2023/09/11 09:20:05;;;;;;;43.77;41.30;;;26.20;99.90;;;;;;5052749;28;20471;-58
2023/09/11 09:22:32;;;;;;;47.20;44.80;;;26.20;99.90;;;;;;5053835;28;20444;-58
2023/09/11 09:24:59;;;;;;;44.27;41.57;;;26.20;99.90;;;;;;5054176;28;20444;-56
2023/09/11 09:27:28;;;;;;;44.53;41.93;;;26.20;99.90;;;;;;5054079;28;20479;-58
2023/09/11 09:29:55;;;;;;;46.30;44.20;;;26.20;99.90;;;;;;5053968;28;20444;-58
2023/09/11 09:32:23;;;;;;;43.87;41.37;;;26.30;99.90;;;;;;5053710;28;20491;-59
2023/09/11 09:34:53;;;;;;;41.87;39.77;;;26.30;99.90;;;;;;5053947;28;20451;-59
2023/09/11 09:37:21;;;;;;;43.97;41.73;;;26.30;99.90;;;;;;5053939;28;20475;-58
2023/09/11 09:39:50;;;;;;;44.43;41.77;;;26.30;99.90;;;;;;5053627;28;20483;-58
2023/09/11 09:42:17;;;;;;;43.03;40.73;;;26.30;99.90;;;;;;5053489;28;20456;-60
2023/09/11 09:44:52;;;;;;;45.17;42.77;;;26.30;99.90;;;;;;5053798;28;20436;-60
2023/09/11 09:47:20;;;;;;;44.40;42.10;;;26.30;99.90;;;;;;5046763;28;20838;-59
2023/09/11 09:49:50;;;;;;;44.90;42.47;;;26.30;99.90;;;;;;5053473;28;20439;-60
2023/09/11 09:52:18;;;;;;;43.10;41.07;;;26.30;99.90;;;;;;5053172;28;20464;-57
2023/09/11 09:54:47;;;;;;;44.27;42.17;;;26.30;99.90;;;;;;5053451;28;20455;-58
2023/09/11 09:57:15;;;;;;;46.20;43.97;;;26.30;99.90;;;;;;5045713;28;20536;-54
2023/09/11 09:59:43;;;;;;;43.50;41.13;;;26.30;99.90;;;;;;5053315;28;20565;-60
2023/09/11 10:02:12;;;;;;;45.77;43.17;;;26.30;99.90;;;;;;5053035;28;20495;-57
2023/09/11 10:04:39;;;;;;;43.87;41.50;;;26.30;99.90;;;;;;5053468;28;20448;-59
2023/09/11 10:07:07;;;;;;;43.57;41.37;;;26.30;99.90;;;;;;5053149;28;20468;-58
2023/09/11 10:09:35;;;;;;;43.40;41.20;;;26.30;99.90;;;;;;5053211;28;20468;-59
2023/09/11 10:12:04;;;;;;;41.70;39.40;;;26.30;99.90;;;;;;5052947;28;20472;-58
2023/09/11 10:14:32;;;;;;;45.13;42.93;;;26.30;99.90;;;;;;5053143;28;20560;-57
2023/09/11 10:17:00;;;;;;;44.20;41.80;;;26.30;99.90;;;;;;5053008;28;20455;-58
2023/09/11 10:19:30;;;;;;;47.23;44.63;;;26.30;99.90;;;;;;5053033;28;20490;-60
2023/09/11 10:21:58;;;;;;;43.87;41.20;;;26.30;99.90;;;;;;5052468;28;20468;-60
2023/09/11 10:24:27;;;;;;;44.33;42.23;;;26.40;99.90;;;;;;5053084;28;20475;-59
2023/09/11 10:26:57;;;;;;;45.83;43.33;;;26.40;99.90;;;;;;5052925;28;20483;-58
2023/09/11 10:29:37;;;;;;;42.30;40.23;;;26.40;99.90;;;;;;5052782;28;20444;-57
2023/09/11 10:32:07;;;;;;;44.83;42.50;;;26.40;99.90;;;;;;5052498;28;20468;-58
2023/09/11 10:34:38;;;;;;;45.70;43.00;;;26.40;99.90;;;;;;5052839;28;20441;-58
2023/09/11 10:37:06;;;;;;;46.30;43.90;;;26.40;99.90;;;;;;5052635;28;20468;-59
2023/09/11 10:39:38;;;;;;;49.00;46.40;;;26.40;99.90;;;;;;5052917;28;21038;-58
2023/09/11 10:42:05;;;;;;;47.80;45.53;;;26.40;99.90;;;;;;5052549;28;20495;-58
2023/09/11 10:44:37;;;;;;;47.43;44.83;;;26.40;99.90;;;;;;5052598;28;20472;-58
2023/09/11 10:47:05;;;;;;;45.90;43.57;;;26.40;99.90;;;;;;5052618;28;20440;-58
2023/09/11 10:49:37;;;;;;;46.83;44.60;;;26.40;99.90;;;;;;5052529;28;20524;-59
2023/09/11 10:52:07;;;;;;;46.00;43.73;;;26.50;99.90;;;;;;5051965;28;20468;-57
2023/09/11 10:54:36;;;;;;;46.60;44.20;;;26.50;99.90;;;;;;5052510;28;20465;-60
2023/09/11 10:57:03;;;;;;;47.80;45.20;;;26.50;99.90;;;;;;5052242;28;20444;-58
2023/09/11 10:59:31;;;;;;;47.37;44.97;;;26.50;99.90;;;;;;5052067;28;20500;-58
2023/09/11 11:01:58;;;;;;;45.37;42.90;;;26.50;99.90;;;;;;5051859;28;20492;-57
2023/09/11 11:04:26;;;;;;;48.10;45.40;;;26.50;99.90;;;;;;5052142;28;20451;-58
2023/09/11 11:06:55;;;;;;;45.23;42.93;;;26.50;99.90;;;;;;5051997;28;20933;-58
2023/09/11 11:09:29;;;;;;;44.67;42.27;;;26.60;99.90;;;;;;5051966;28;20447;-59
2023/09/11 11:11:59;;;;;;;49.40;46.90;;;26.60;99.90;;;;;;5051851;28;20502;-60
2023/09/11 11:14:27;;;;;;;49.40;47.00;;;26.60;99.90;;;;;;5051961;28;20974;-60
2023/09/11 11:17:04;;;;;;;48.03;45.70;;;26.60;99.90;;;;;;5051862;28;20483;-58
2023/09/11 11:19:32;;;;;;;48.60;46.10;;;26.60;99.90;;;;;;5051937;28;20476;-58
2023/09/11 11:22:00;;;;;;;51.83;48.93;;;26.60;99.90;;;;;;5051410;28;20551;-60
2023/09/11 11:24:31;;;;;;;49.63;46.93;;;26.60;99.90;;;;;;5051817;28;20468;-58
2023/09/11 11:27:03;;;;;;;49.03;46.53;;;26.60;99.90;;;;;;5051719;28;20476;-58
2023/09/11 11:29:30;;;;;;;47.03;44.63;;;26.60;99.90;;;;;;5051793;28;20432;-59
2023/09/11 11:31:59;;;;;;;45.80;43.30;;;26.60;99.90;;;;;;5051376;28;20488;-55
2023/09/11 11:34:31;;;;;;;48.13;45.73;;;26.60;99.90;;;;;;5051558;28;20476;-57
2023/09/11 11:36:59;;;;;;;49.80;47.30;;;26.60;99.90;;;;;;5051521;28;20447;-59
2023/09/11 11:39:28;;;;;;;48.13;45.60;;;26.70;99.90;;;;;;5051537;28;20472;-60
2023/09/11 11:41:56;;;;;;;46.70;44.50;;;26.70;99.90;;;;;;5050738;28;20808;-57
2023/09/11 11:44:26;;;;;;;49.67;47.07;;;26.70;99.90;;;;;;5051706;28;20963;-59
2023/09/11 11:46:53;;;;;;;48.47;45.93;;;26.70;99.90;;;;;;5051264;28;20443;-58
2023/09/11 11:49:21;;;;;;;46.60;44.20;;;26.70;99.90;;;;;;5051369;28;20439;-60
2023/09/11 11:51:48;;;;;;;48.70;46.00;;;26.70;99.90;;;;;;5051092;28;20492;-59
2023/09/11 11:54:22;;;;;;;46.70;44.40;;;26.80;99.90;;;;;;5051472;28;20475;-59
2023/09/11 11:56:53;;;;;;;48.33;45.80;;;26.70;99.90;;;;;;5051302;28;20466;-58
2023/09/11 11:59:20;;;;;;;48.73;46.03;;;26.80;99.90;;;;;;5043895;28;20507;-60
2023/09/11 12:01:48;;;;;;;48.40;46.00;;;26.80;99.90;;;;;;5051045;28;20502;-59
2023/09/11 12:04:15;;;;;;;49.80;47.20;;;26.80;99.90;;;;;;5043017;28;20533;-59
2023/09/11 12:06:43;;;;;;;50.83;48.43;;;26.80;99.90;;;;;;5051170;28;20448;-60
2023/09/11 12:09:10;;;;;;;53.03;50.53;;;26.80;99.90;;;;;;5051081;28;20483;-60
2023/09/11 12:11:39;;;;;;;54.43;51.67;;;26.80;99.90;;;;;;5050777;28;20826;-57
2023/09/11 12:14:08;;;;;;;51.17;48.47;;;26.80;99.90;;;;;;5050907;28;20443;-60
2023/09/11 12:16:36;;;;;;;52.57;49.87;;;26.90;99.90;;;;;;5051185;28;20440;-60
2023/09/11 12:19:04;;;;;;;48.60;46.10;;;26.90;99.90;;;;;;5050840;28;20916;-60
2023/09/11 12:21:31;;;;;;;50.00;47.50;;;26.90;99.90;;;;;;5050722;28;20470;-60
2023/09/11 12:23:59;;;;;;;47.40;45.10;;;26.90;99.90;;;;;;5050671;28;20448;-60
2023/09/11 12:26:27;;;;;;;48.60;46.30;;;26.90;99.90;;;;;;5051016;28;20479;-60
2023/09/11 12:28:54;;;;;;;48.60;46.00;;;26.90;99.90;;;;;;5050883;28;20947;-57
2023/09/11 12:31:22;;;;;;;51.83;49.23;;;27.00;99.90;;;;;;5050812;28;20495;-59